LRCV

Details ICAO LRCV (CRA)
Name CRAIOVA
Region Romania
Timezone Europe/Bucharest (UTC+2.0)
Plans Departing 26
Arriving 30
Stats Elevation 626 ft / 191 m (AMSL)
Location 44.318152° 23.888541°
Runways 1
Magnetic Variation 5.218° E
Sunrise 2017-12-17 05:56:07 UTC / 2017-12-17 07:56:07 Local
Sunset 2017-12-17 14:47:42 UTC / 2017-12-17 16:47:42 Local
Advertisement - Login to hide

Runways

ID Width Length Bearing (true) Bearing (mag) Surface Threshold Offset Overrun Length
09 148 ft / 45 m 8,146 ft / 2,483 m 88.92° 83.70° Concrete 0 ft / 0 m 0 ft / 0 m
27 148 ft / 45 m 8,146 ft / 2,483 m 268.94° 263.72° Concrete 0 ft / 0 m 0 ft / 0 m

Map

Weather


0- 5 10 15 20 25 30 35+ Temperature / ° C

Clouds and Precipitation
Forecast for 2017-12-17 06:00 UTC. Updated an hour ago

Ground ~20,000 ft ~40,000 ft Winds

METAR

LRCV 170230Z AUTO 22007KT BKN075/// BKN120/// 03/01 Q1010

TAF

Not found

Frequencies

Tower 124.30 MHz TWR
Approach 124.30 MHz APP
Warning: Do not use this data for real-world aviation or navigation. No guarantee of current accuracy is given.